sensor_id;sensor_type;location;lat;lon;timestamp;pressure;altitude;pressure_sealevel;temperature;humidity
48424;BME280;34232;42.502;26.014;2023-07-16T00:01:28;100250.25;;;25.94;61.32
48424;BME280;34232;42.502;26.014;2023-07-16T00:03:54;100241.38;;;25.87;61.52
48424;BME280;34232;42.502;26.014;2023-07-16T00:06:19;100242.28;;;25.81;61.23
48424;BME280;34232;42.502;26.014;2023-07-16T00:14:39;100242.00;;;25.57;61.70
48424;BME280;34232;42.502;26.014;2023-07-16T00:17:05;100238.53;;;25.50;62.11
48424;BME280;34232;42.502;26.014;2023-07-16T00:19:30;100237.34;;;25.46;62.26
48424;BME280;34232;42.502;26.014;2023-07-16T00:21:55;100237.59;;;25.38;62.66
48424;BME280;34232;42.502;26.014;2023-07-16T00:33:29;100234.97;;;25.25;61.85
48424;BME280;34232;42.502;26.014;2023-07-16T00:35:55;100229.59;;;25.25;60.90
48424;BME280;34232;42.502;26.014;2023-07-16T00:47:14;100225.56;;;25.09;59.70
48424;BME280;34232;42.502;26.014;2023-07-16T00:49:39;100230.53;;;25.05;59.99
48424;BME280;34232;42.502;26.014;2023-07-16T00:52:05;100224.38;;;24.98;60.13
48424;BME280;34232;42.502;26.014;2023-07-16T01:07:11;100213.41;;;24.49;63.48
48424;BME280;34232;42.502;26.014;2023-07-16T01:09:41;100215.88;;;24.44;63.71
48424;BME280;34232;42.502;26.014;2023-07-16T01:12:07;100217.97;;;24.41;64.06
48424;BME280;34232;42.502;26.014;2023-07-16T01:14:32;100210.50;;;24.37;64.17
48424;BME280;34232;42.502;26.014;2023-07-16T01:16:58;100204.75;;;24.33;63.91
48424;BME280;34232;42.502;26.014;2023-07-16T01:28:44;100205.34;;;24.22;64.50
48424;BME280;34232;42.502;26.014;2023-07-16T01:31:15;100209.28;;;24.20;64.50
48424;BME280;34232;42.502;26.014;2023-07-16T01:33:40;100199.81;;;24.17;64.40
48424;BME280;34232;42.502;26.014;2023-07-16T01:36:07;100205.56;;;24.21;64.19
48424;BME280;34232;42.502;26.014;2023-07-16T01:38:32;100200.38;;;24.19;64.29
48424;BME280;34232;42.502;26.014;2023-07-16T01:40:58;100203.91;;;24.20;64.25
48424;BME280;34232;42.502;26.014;2023-07-16T01:43:24;100193.38;;;24.18;64.19
48424;BME280;34232;42.502;26.014;2023-07-16T01:45:49;100201.47;;;24.18;63.84
48424;BME280;34232;42.502;26.014;2023-07-16T01:50:41;100195.88;;;24.13;63.43
48424;BME280;34232;42.502;26.014;2023-07-16T02:09:25;100204.41;;;23.84;64.36
48424;BME280;34232;42.502;26.014;2023-07-16T02:11:51;100205.25;;;23.78;65.13
48424;BME280;34232;42.502;26.014;2023-07-16T02:17:18;100211.25;;;23.80;65.30
48424;BME280;34232;42.502;26.014;2023-07-16T02:19:44;100209.59;;;23.79;65.63
48424;BME280;34232;42.502;26.014;2023-07-16T02:22:09;100204.00;;;23.73;66.12
48424;BME280;34232;42.502;26.014;2023-07-16T02:27:37;100204.00;;;23.73;66.39
48424;BME280;34232;42.502;26.014;2023-07-16T02:30:03;100202.34;;;23.72;66.41
48424;BME280;34232;42.502;26.014;2023-07-16T02:38:22;100204.25;;;23.52;67.77
48424;BME280;34232;42.502;26.014;2023-07-16T02:40:48;100206.66;;;23.47;68.24
48424;BME280;34232;42.502;26.014;2023-07-16T02:52:22;100215.75;;;23.33;68.53
48424;BME280;34232;42.502;26.014;2023-07-16T02:54:47;100212.84;;;23.28;68.67
48424;BME280;34232;42.502;26.014;2023-07-16T02:57:12;100219.25;;;23.27;68.63
48424;BME280;34232;42.502;26.014;2023-07-16T03:02:40;100227.94;;;23.29;68.45
48424;BME280;34232;42.502;26.014;2023-07-16T03:05:06;100227.75;;;23.30;68.16
48424;BME280;34232;42.502;26.014;2023-07-16T03:07:31;100226.72;;;23.31;67.73
48424;BME280;34232;42.502;26.014;2023-07-16T03:09:56;100226.50;;;23.33;67.52
48424;BME280;34232;42.502;26.014;2023-07-16T03:18:28;100232.50;;;23.35;67.76
48424;BME280;34232;42.502;26.014;2023-07-16T03:20:54;100225.47;;;23.34;67.97
48424;BME280;34232;42.502;26.014;2023-07-16T03:32:27;100237.47;;;23.31;67.76
48424;BME280;34232;42.502;26.014;2023-07-16T03:34:54;100235.59;;;23.32;67.84
48424;BME280;34232;42.502;26.014;2023-07-16T03:53:09;100255.31;;;23.65;67.20
48424;BME280;34232;42.502;26.014;2023-07-16T03:59:17;100250.34;;;23.76;67.58
48424;BME280;34232;42.502;26.014;2023-07-16T04:01:44;100256.53;;;23.83;67.32
48424;BME280;34232;42.502;26.014;2023-07-16T04:04:54;100252.59;;;23.92;67.25
48424;BME280;34232;42.502;26.014;2023-07-16T04:07:32;100250.75;;;23.99;67.32
48424;BME280;34232;42.502;26.014;2023-07-16T04:09:57;100248.22;;;24.04;67.11
48424;BME280;34232;42.502;26.014;2023-07-16T04:12:23;100259.41;;;24.07;67.61
48424;BME280;34232;42.502;26.014;2023-07-16T04:14:48;100258.78;;;24.12;67.71
48424;BME280;34232;42.502;26.014;2023-07-16T04:17:13;100266.03;;;24.18;67.92
48424;BME280;34232;42.502;26.014;2023-07-16T04:19:39;100264.38;;;24.24;68.19
48424;BME280;34232;42.502;26.014;2023-07-16T04:22:04;100268.94;;;24.30;68.23
48424;BME280;34232;42.502;26.014;2023-07-16T04:27:33;100270.13;;;24.47;69.07
48424;BME280;34232;42.502;26.014;2023-07-16T04:29:59;100266.38;;;24.55;69.16
48424;BME280;34232;42.502;26.014;2023-07-16T04:32:24;100273.81;;;24.66;69.57
48424;BME280;34232;42.502;26.014;2023-07-16T04:34:49;100262.56;;;24.75;69.46
48424;BME280;34232;42.502;26.014;2023-07-16T04:37:18;100271.25;;;24.77;69.10
48424;BME280;34232;42.502;26.014;2023-07-16T04:39:43;100275.75;;;24.90;69.37
48424;BME280;34232;42.502;26.014;2023-07-16T04:42:08;100281.56;;;24.87;69.46
48424;BME280;34232;42.502;26.014;2023-07-16T04:44:34;100277.03;;;24.94;69.93
48424;BME280;34232;42.502;26.014;2023-07-16T04:46:59;100276.13;;;25.07;69.16
48424;BME280;34232;42.502;26.014;2023-07-16T04:58:32;100283.28;;;25.58;67.08
48424;BME280;34232;42.502;26.014;2023-07-16T05:00:58;100289.06;;;25.61;66.35
48424;BME280;34232;42.502;26.014;2023-07-16T05:12:32;100289.53;;;26.33;63.00
48424;BME280;34232;42.502;26.014;2023-07-16T05:14:57;100297.66;;;26.51;62.36
48424;BME280;34232;42.502;26.014;2023-07-16T05:17:22;100285.28;;;26.62;61.79
48424;BME280;34232;42.502;26.014;2023-07-16T05:19:48;100285.41;;;26.85;60.11
48424;BME280;34232;42.502;26.014;2023-07-16T05:22:13;100291.28;;;27.00;60.47
48424;BME280;34232;42.502;26.014;2023-07-16T05:24:38;100291.63;;;27.22;58.89
48424;BME280;34232;42.502;26.014;2023-07-16T05:27:04;100297.00;;;27.52;59.05
48424;BME280;34232;42.502;26.014;2023-07-16T05:29:29;100296.00;;;27.76;57.78
48424;BME280;34232;42.502;26.014;2023-07-16T05:31:55;100290.72;;;27.93;54.60
48424;BME280;34232;42.502;26.014;2023-07-16T05:34:26;100288.53;;;28.02;54.13
48424;BME280;34232;42.502;26.014;2023-07-16T05:36:55;100288.66;;;28.30;53.13
48424;BME280;34232;42.502;26.014;2023-07-16T05:48:43;100281.97;;;28.96;50.50
48424;BME280;34232;42.502;26.014;2023-07-16T05:51:09;100287.84;;;29.05;49.18
48424;BME280;34232;42.502;26.014;2023-07-16T05:53:34;100292.13;;;28.89;48.37
48424;BME280;34232;42.502;26.014;2023-07-16T05:55:59;100295.41;;;28.91;49.53
48424;BME280;34232;42.502;26.014;2023-07-16T06:07:36;100296.41;;;29.42;49.13
48424;BME280;34232;42.502;26.014;2023-07-16T06:10:02;100294.28;;;29.44;48.76
48424;BME280;34232;42.502;26.014;2023-07-16T06:12:27;100291.34;;;29.62;47.61
48424;BME280;34232;42.502;26.014;2023-07-16T06:14:53;100283.13;;;29.90;47.60
48424;BME280;34232;42.502;26.014;2023-07-16T06:29:42;100292.34;;;30.23;43.75
48424;BME280;34232;42.502;26.014;2023-07-16T06:32:07;100287.72;;;30.23;43.14
48424;BME280;34232;42.502;26.014;2023-07-16T06:44:00;100290.84;;;30.32;42.59
48424;BME280;34232;42.502;26.014;2023-07-16T06:46:25;100285.53;;;30.59;42.02
48424;BME280;34232;42.502;26.014;2023-07-16T06:58:34;100286.78;;;31.44;38.52
48424;BME280;34232;42.502;26.014;2023-07-16T07:00:59;100289.50;;;31.44;38.04
48424;BME280;34232;42.502;26.014;2023-07-16T07:13:08;100281.78;;;31.36;38.49
48424;BME280;34232;42.502;26.014;2023-07-16T07:18:54;100275.47;;;31.57;36.90
48424;BME280;34232;42.502;26.014;2023-07-16T07:21:21;100275.88;;;31.71;37.64
48424;BME280;34232;42.502;26.014;2023-07-16T07:23:46;100271.72;;;31.95;37.00
48424;BME280;34232;42.502;26.014;2023-07-16T07:26:12;100272.13;;;32.19;38.23
48424;BME280;34232;42.502;26.014;2023-07-16T07:38:14;100258.38;;;32.30;36.29
48424;BME280;34232;42.502;26.014;2023-07-16T07:40:42;100260.69;;;32.59;37.28
48424;BME280;34232;42.502;26.014;2023-07-16T07:49:12;100258.69;;;33.12;34.78
48424;BME280;34232;42.502;26.014;2023-07-16T07:51:37;100271.56;;;33.26;34.59
48424;BME280;34232;42.502;26.014;2023-07-16T08:12:18;100253.44;;;34.47;33.96
48424;BME280;34232;42.502;26.014;2023-07-16T08:14:43;100255.09;;;34.53;32.76
48424;BME280;34232;42.502;26.014;2023-07-16T08:17:08;100258.97;;;34.37;32.80
48424;BME280;34232;42.502;26.014;2023-07-16T08:19:34;100265.34;;;33.87;33.40
48424;BME280;34232;42.502;26.014;2023-07-16T08:21:59;100254.94;;;33.28;33.63
48424;BME280;34232;42.502;26.014;2023-07-16T08:24:45;100266.13;;;33.36;33.60
48424;BME280;34232;42.502;26.014;2023-07-16T08:27:10;100254.66;;;33.70;34.04
48424;BME280;34232;42.502;26.014;2023-07-16T08:30:13;100255.19;;;33.97;33.39
48424;BME280;34232;42.502;26.014;2023-07-16T08:39:01;100252.53;;;34.77;32.16
48424;BME280;34232;42.502;26.014;2023-07-16T08:41:27;100247.06;;;34.77;31.50
48424;BME280;34232;42.502;26.014;2023-07-16T08:43:52;100246.19;;;34.77;31.23
48424;BME280;34232;42.502;26.014;2023-07-16T08:46:19;100243.47;;;34.82;31.20
48424;BME280;34232;42.502;26.014;2023-07-16T08:48:45;100246.94;;;34.97;31.74
48424;BME280;34232;42.502;26.014;2023-07-16T08:51:10;100245.56;;;35.00;31.21
48424;BME280;34232;42.502;26.014;2023-07-16T08:59:39;100235.25;;;34.87;30.84
48424;BME280;34232;42.502;26.014;2023-07-16T09:02:05;100242.19;;;35.13;31.02
48424;BME280;34232;42.502;26.014;2023-07-16T09:07:35;100245.81;;;35.48;30.08
48424;BME280;34232;42.502;26.014;2023-07-16T09:10:02;100236.16;;;35.55;30.75
48424;BME280;34232;42.502;26.014;2023-07-16T09:12:28;100236.25;;;35.79;30.58
48424;BME280;34232;42.502;26.014;2023-07-16T09:14:54;100233.50;;;35.06;30.46
48424;BME280;34232;42.502;26.014;2023-07-16T09:17:23;100230.81;;;34.91;30.63
48424;BME280;34232;42.502;26.014;2023-07-16T09:19:50;100224.41;;;35.11;31.58
48424;BME280;34232;42.502;26.014;2023-07-16T09:22:16;100223.78;;;34.80;31.78
48424;BME280;34232;42.502;26.014;2023-07-16T09:24:47;100227.06;;;34.82;31.27
48424;BME280;34232;42.502;26.014;2023-07-16T09:27:12;100221.66;;;34.61;31.95
48424;BME280;34232;42.502;26.014;2023-07-16T09:42:30;100222.06;;;36.25;30.38
48424;BME280;34232;42.502;26.014;2023-07-16T09:45:39;100203.59;;;36.54;29.66
48424;BME280;34232;42.502;26.014;2023-07-16T09:51:56;100203.00;;;37.00;29.55
48424;BME280;34232;42.502;26.014;2023-07-16T09:54:40;100200.97;;;36.87;29.07
48424;BME280;34232;42.502;26.014;2023-07-16T09:57:05;100197.63;;;36.90;29.15
48424;BME280;34232;42.502;26.014;2023-07-16T10:08:57;100183.03;;;37.45;28.68
48424;BME280;34232;42.502;26.014;2023-07-16T10:11:23;100170.09;;;37.65;29.17
48424;BME280;34232;42.502;26.014;2023-07-16T10:13:48;100168.75;;;37.76;28.59
48424;BME280;34232;42.502;26.014;2023-07-16T10:16:20;100167.03;;;37.94;28.77
48424;BME280;34232;42.502;26.014;2023-07-16T10:19:23;100173.09;;;38.09;28.07
48424;BME280;34232;42.502;26.014;2023-07-16T10:54:26;100130.34;;;38.39;25.89
48424;BME280;34232;42.502;26.014;2023-07-16T10:56:51;100126.38;;;38.32;26.96
48424;BME280;34232;42.502;26.014;2023-07-16T11:08:24;100110.09;;;38.22;27.37
48424;BME280;34232;42.502;26.014;2023-07-16T11:10:54;100111.13;;;37.98;26.97
48424;BME280;34232;42.502;26.014;2023-07-16T11:38:49;100081.59;;;37.63;26.41
48424;BME280;34232;42.502;26.014;2023-07-16T11:51:45;100085.16;;;37.50;27.45
48424;BME280;34232;42.502;26.014;2023-07-16T11:54:29;100089.50;;;37.51;26.56
48424;BME280;34232;42.502;26.014;2023-07-16T11:56:56;100080.34;;;37.41;26.74
48424;BME280;34232;42.502;26.014;2023-07-16T12:14:34;100076.94;;;37.77;26.82
48424;BME280;34232;42.502;26.014;2023-07-16T12:17:01;100070.03;;;37.66;26.03
48424;BME280;34232;42.502;26.014;2023-07-16T12:19:26;100069.22;;;37.65;26.68
48424;BME280;34232;42.502;26.014;2023-07-16T12:21:51;100068.53;;;37.55;26.47
48424;BME280;34232;42.502;26.014;2023-07-16T12:24:17;100074.84;;;37.55;25.57
48424;BME280;34232;42.502;26.014;2023-07-16T12:26:42;100074.88;;;37.09;26.44
48424;BME280;34232;42.502;26.014;2023-07-16T12:29:07;100064.59;;;37.33;27.28
48424;BME280;34232;42.502;26.014;2023-07-16T12:31:33;100066.38;;;36.92;26.63
48424;BME280;34232;42.502;26.014;2023-07-16T12:33:59;100071.75;;;36.64;27.30
48424;BME280;34232;42.502;26.014;2023-07-16T12:36:24;100077.31;;;36.40;26.67
48424;BME280;34232;42.502;26.014;2023-07-16T12:38:50;100065.38;;;36.50;27.41
48424;BME280;34232;42.502;26.014;2023-07-16T12:41:16;100071.41;;;36.52;27.03
48424;BME280;34232;42.502;26.014;2023-07-16T12:43:41;100065.75;;;36.43;26.47
48424;BME280;34232;42.502;26.014;2023-07-16T12:46:07;100066.41;;;36.54;26.54
48424;BME280;34232;42.502;26.014;2023-07-16T12:54:38;100056.44;;;37.28;27.00
48424;BME280;34232;42.502;26.014;2023-07-16T12:57:03;100055.00;;;37.44;26.30
48424;BME280;34232;42.502;26.014;2023-07-16T12:59:29;100054.41;;;37.61;25.77
48424;BME280;34232;42.502;26.014;2023-07-16T13:01:55;100050.47;;;37.81;26.44
48424;BME280;34232;42.502;26.014;2023-07-16T13:04:21;100048.31;;;37.92;25.63
48424;BME280;34232;42.502;26.014;2023-07-16T13:06:46;100052.06;;;38.09;26.00
48424;BME280;34232;42.502;26.014;2023-07-16T13:12:15;100041.34;;;38.22;24.90
48424;BME280;34232;42.502;26.014;2023-07-16T13:14:40;100032.81;;;38.09;25.73
48424;BME280;34232;42.502;26.014;2023-07-16T13:17:06;100029.25;;;37.95;25.09
48424;BME280;34232;42.502;26.014;2023-07-16T13:28:39;100025.00;;;37.62;26.16
48424;BME280;34232;42.502;26.014;2023-07-16T13:31:06;100023.47;;;37.69;25.97
48424;BME280;34232;42.502;26.014;2023-07-16T13:39:37;100026.00;;;37.93;25.74
48424;BME280;34232;42.502;26.014;2023-07-16T13:42:02;100018.25;;;37.95;25.68
48424;BME280;34232;42.502;26.014;2023-07-16T13:54:03;100010.88;;;38.18;24.90
48424;BME280;34232;42.502;26.014;2023-07-16T13:56:29;100006.41;;;38.08;24.79
48424;BME280;34232;42.502;26.014;2023-07-16T13:58:54;100000.09;;;38.08;24.99
48424;BME280;34232;42.502;26.014;2023-07-16T14:01:19;100000.78;;;37.77;25.94
48424;BME280;34232;42.502;26.014;2023-07-16T14:07:14;100002.22;;;37.47;25.79
48424;BME280;34232;42.502;26.014;2023-07-16T14:09:40;99993.84;;;37.53;25.80
48424;BME280;34232;42.502;26.014;2023-07-16T14:12:05;99994.84;;;37.57;27.82
48424;BME280;34232;42.502;26.014;2023-07-16T14:14:31;99992.72;;;37.67;25.25
48424;BME280;34232;42.502;26.014;2023-07-16T14:16:56;100000.16;;;37.67;27.21
48424;BME280;34232;42.502;26.014;2023-07-16T14:22:24;99992.19;;;37.10;25.44
48424;BME280;34232;42.502;26.014;2023-07-16T14:24:52;99991.13;;;36.93;26.02
48424;BME280;34232;42.502;26.014;2023-07-16T14:33:23;99988.69;;;36.77;25.50
48424;BME280;34232;42.502;26.014;2023-07-16T14:35:48;99981.56;;;36.76;25.54
48424;BME280;34232;42.502;26.014;2023-07-16T14:38:14;99982.97;;;36.74;26.10
48424;BME280;34232;42.502;26.014;2023-07-16T14:40:39;99987.47;;;36.84;25.75
48424;BME280;34232;42.502;26.014;2023-07-16T14:43:05;99981.19;;;36.97;25.75
48424;BME280;34232;42.502;26.014;2023-07-16T14:45:36;99976.53;;;37.11;26.00
48424;BME280;34232;42.502;26.014;2023-07-16T14:54:07;99966.06;;;37.13;25.76
48424;BME280;34232;42.502;26.014;2023-07-16T14:56:33;99966.19;;;37.22;26.15
48424;BME280;34232;42.502;26.014;2023-07-16T14:58:58;99962.78;;;37.11;26.35
48424;BME280;34232;42.502;26.014;2023-07-16T15:01:24;99968.09;;;37.21;26.08
48424;BME280;34232;42.502;26.014;2023-07-16T15:10:04;99963.53;;;37.30;26.04
48424;BME280;34232;42.502;26.014;2023-07-16T15:18:40;99958.25;;;37.47;26.51
48424;BME280;34232;42.502;26.014;2023-07-16T15:21:06;99964.13;;;37.55;25.93
48424;BME280;34232;42.502;26.014;2023-07-16T15:23:31;99966.56;;;37.56;27.43
48424;BME280;34232;42.502;26.014;2023-07-16T15:26:00;99964.56;;;37.48;26.58
48424;BME280;34232;42.502;26.014;2023-07-16T15:28:26;99965.69;;;37.47;26.49
48424;BME280;34232;42.502;26.014;2023-07-16T15:30:51;99963.31;;;37.40;26.25
48424;BME280;34232;42.502;26.014;2023-07-16T15:33:17;99963.94;;;37.37;26.67
48424;BME280;34232;42.502;26.014;2023-07-16T15:35:42;99959.44;;;37.14;27.09
48424;BME280;34232;42.502;26.014;2023-07-16T15:44:13;99968.34;;;36.78;27.86
48424;BME280;34232;42.502;26.014;2023-07-16T15:46:38;99970.75;;;36.66;27.39
48424;BME280;34232;42.502;26.014;2023-07-16T15:52:13;99967.53;;;36.27;27.14
48424;BME280;34232;42.502;26.014;2023-07-16T15:54:39;99964.81;;;36.27;28.39
48424;BME280;34232;42.502;26.014;2023-07-16T15:57:04;99968.59;;;36.31;28.38
48424;BME280;34232;42.502;26.014;2023-07-16T16:02:34;99967.28;;;36.42;28.69
48424;BME280;34232;42.502;26.014;2023-07-16T16:04:59;99969.00;;;36.38;27.12
48424;BME280;34232;42.502;26.014;2023-07-16T16:10:27;99976.72;;;35.98;27.44
48424;BME280;34232;42.502;26.014;2023-07-16T16:12:53;99978.63;;;35.79;27.74
48424;BME280;34232;42.502;26.014;2023-07-16T16:15:18;99980.75;;;35.63;27.79
48424;BME280;34232;42.502;26.014;2023-07-16T16:17:44;99975.88;;;35.36;27.87
48424;BME280;34232;42.502;26.014;2023-07-16T16:20:41;99984.72;;;35.23;28.10
48424;BME280;34232;42.502;26.014;2023-07-16T16:23:28;99990.28;;;35.18;28.31
48424;BME280;34232;42.502;26.014;2023-07-16T16:25:54;99987.81;;;34.93;27.78
48424;BME280;34232;42.502;26.014;2023-07-16T16:28:21;99996.69;;;34.80;27.85
48424;BME280;34232;42.502;26.014;2023-07-16T16:31:16;100002.94;;;34.51;28.54
48424;BME280;34232;42.502;26.014;2023-07-16T16:33:46;100002.41;;;34.44;28.10
48424;BME280;34232;42.502;26.014;2023-07-16T16:36:11;100010.44;;;34.35;28.60
48424;BME280;34232;42.502;26.014;2023-07-16T16:38:57;100008.59;;;34.16;28.24
48424;BME280;34232;42.502;26.014;2023-07-16T16:41:22;100014.44;;;34.04;28.96
48424;BME280;34232;42.502;26.014;2023-07-16T16:43:48;100014.25;;;33.90;29.00
48424;BME280;34232;42.502;26.014;2023-07-16T16:46:15;100025.47;;;33.84;29.30
48424;BME280;34232;42.502;26.014;2023-07-16T16:49:01;100026.31;;;33.74;29.36
48424;BME280;34232;42.502;26.014;2023-07-16T16:51:27;100036.16;;;33.70;28.86
48424;BME280;34232;42.502;26.014;2023-07-16T16:53:53;100044.34;;;33.70;29.17
48424;BME280;34232;42.502;26.014;2023-07-16T16:56:18;100037.34;;;33.44;28.97
48424;BME280;34232;42.502;26.014;2023-07-16T17:02:09;100047.16;;;33.19;29.82
48424;BME280;34232;42.502;26.014;2023-07-16T17:04:38;100039.56;;;33.11;29.55
48424;BME280;34232;42.502;26.014;2023-07-16T17:07:05;100054.81;;;33.12;29.68
48424;BME280;34232;42.502;26.014;2023-07-16T17:09:32;100052.66;;;32.99;30.25
48424;BME280;34232;42.502;26.014;2023-07-16T17:11:58;100057.84;;;32.85;30.31
48424;BME280;34232;42.502;26.014;2023-07-16T17:14:23;100059.50;;;32.76;30.38
48424;BME280;34232;42.502;26.014;2023-07-16T17:16:49;100063.56;;;32.74;30.54
48424;BME280;34232;42.502;26.014;2023-07-16T17:28:23;100078.47;;;32.30;30.35
48424;BME280;34232;42.502;26.014;2023-07-16T17:30:48;100087.44;;;32.31;30.39
48424;BME280;34232;42.502;26.014;2023-07-16T17:48:27;100100.88;;;31.80;30.37
48424;BME280;34232;42.502;26.014;2023-07-16T17:50:52;100097.03;;;31.76;30.40
48424;BME280;34232;42.502;26.014;2023-07-16T17:59:24;100104.34;;;31.66;30.38
48424;BME280;34232;42.502;26.014;2023-07-16T18:01:49;100117.00;;;31.55;30.60
48424;BME280;34232;42.502;26.014;2023-07-16T18:04:15;100123.53;;;31.54;30.46
48424;BME280;34232;42.502;26.014;2023-07-16T18:06:40;100124.06;;;31.51;30.46
48424;BME280;34232;42.502;26.014;2023-07-16T18:18:51;100146.13;;;31.17;30.41
48424;BME280;34232;42.502;26.014;2023-07-16T18:21:17;100151.56;;;31.17;30.67
48424;BME280;34232;42.502;26.014;2023-07-16T18:33:10;100163.03;;;30.66;31.77
48424;BME280;34232;42.502;26.014;2023-07-16T18:35:36;100164.47;;;30.51;32.06
48424;BME280;34232;42.502;26.014;2023-07-16T18:38:01;100167.56;;;30.38;31.72
48424;BME280;34232;42.502;26.014;2023-07-16T18:40:26;100164.41;;;30.24;31.90
48424;BME280;34232;42.502;26.014;2023-07-16T18:48:57;100178.81;;;29.86;32.01
48424;BME280;34232;42.502;26.014;2023-07-16T18:51:43;100180.97;;;29.84;32.38
48424;BME280;34232;42.502;26.014;2023-07-16T18:54:10;100188.78;;;29.81;32.35
48424;BME280;34232;42.502;26.014;2023-07-16T18:56:35;100187.94;;;29.80;32.32
48424;BME280;34232;42.502;26.014;2023-07-16T19:02:16;100185.41;;;29.57;33.00
48424;BME280;34232;42.502;26.014;2023-07-16T19:04:42;100190.00;;;29.56;33.09
48424;BME280;34232;42.502;26.014;2023-07-16T19:07:08;100200.03;;;29.56;32.78
48424;BME280;34232;42.502;26.014;2023-07-16T19:34:17;100240.91;;;29.04;35.61
48424;BME280;34232;42.502;26.014;2023-07-16T19:37:05;100243.69;;;29.09;35.34
48424;BME280;34232;42.502;26.014;2023-07-16T19:39:33;100244.25;;;28.95;35.19
48424;BME280;34232;42.502;26.014;2023-07-16T19:42:18;100252.28;;;28.78;35.23
48424;BME280;34232;42.502;26.014;2023-07-16T19:44:44;100252.28;;;28.78;36.28
48424;BME280;34232;42.502;26.014;2023-07-16T19:47:10;100248.75;;;28.89;36.24
48424;BME280;34232;42.502;26.014;2023-07-16T19:49:35;100246.53;;;28.86;35.94
48424;BME280;34232;42.502;26.014;2023-07-16T20:04:31;100252.75;;;28.75;36.81
48424;BME280;34232;42.502;26.014;2023-07-16T20:47:21;100265.09;;;27.72;39.26
48424;BME280;34232;42.502;26.014;2023-07-16T20:49:47;100265.72;;;27.56;40.43
48424;BME280;34232;42.502;26.014;2023-07-16T20:52:12;100275.34;;;27.52;40.74
48424;BME280;34232;42.502;26.014;2023-07-16T21:19:01;100285.91;;;27.12;41.29
48424;BME280;34232;42.502;26.014;2023-07-16T21:21:26;100285.56;;;27.08;41.67
48424;BME280;34232;42.502;26.014;2023-07-16T21:28:45;100284.81;;;27.01;42.26
48424;BME280;34232;42.502;26.014;2023-07-16T21:31:11;100287.81;;;26.93;42.05
48424;BME280;34232;42.502;26.014;2023-07-16T21:33:36;100286.00;;;26.87;42.07
48424;BME280;34232;42.502;26.014;2023-07-16T21:36:01;100285.97;;;26.75;42.24
48424;BME280;34232;42.502;26.014;2023-07-16T21:38:30;100277.63;;;26.59;42.59
48424;BME280;34232;42.502;26.014;2023-07-16T21:40:55;100282.50;;;26.50;42.83
48424;BME280;34232;42.502;26.014;2023-07-16T21:49:34;100283.63;;;26.61;42.74
48424;BME280;34232;42.502;26.014;2023-07-16T21:52:01;100286.47;;;26.47;42.88
48424;BME280;34232;42.502;26.014;2023-07-16T21:54:28;100285.88;;;26.45;43.02
48424;BME280;34232;42.502;26.014;2023-07-16T21:56:54;100286.00;;;26.32;43.30
48424;BME280;34232;42.502;26.014;2023-07-16T22:02:22;100292.63;;;26.36;43.78
48424;BME280;34232;42.502;26.014;2023-07-16T22:04:47;100284.97;;;26.33;43.60
48424;BME280;34232;42.502;26.014;2023-07-16T22:07:12;100292.19;;;26.39;43.72
48424;BME280;34232;42.502;26.014;2023-07-16T22:09:38;100287.38;;;26.41;43.75
48424;BME280;34232;42.502;26.014;2023-07-16T22:12:05;100286.78;;;26.39;44.67
48424;BME280;34232;42.502;26.014;2023-07-16T22:23:39;100294.13;;;26.07;45.69
48424;BME280;34232;42.502;26.014;2023-07-16T22:26:04;100287.59;;;25.97;45.82
48424;BME280;34232;42.502;26.014;2023-07-16T22:28:30;100290.53;;;25.89;46.35
48424;BME280;34232;42.502;26.014;2023-07-16T22:30:55;100295.31;;;25.87;46.17
48424;BME280;34232;42.502;26.014;2023-07-16T22:33:21;100292.63;;;25.87;46.34
48424;BME280;34232;42.502;26.014;2023-07-16T22:35:46;100294.72;;;25.85;46.37
48424;BME280;34232;42.502;26.014;2023-07-16T22:38:12;100292.91;;;25.78;46.39
48424;BME280;34232;42.502;26.014;2023-07-16T22:40:37;100297.31;;;25.73;46.35
48424;BME280;34232;42.502;26.014;2023-07-16T22:58:17;100302.19;;;25.51;47.23
48424;BME280;34232;42.502;26.014;2023-07-16T23:00:42;100296.66;;;25.46;47.23
48424;BME280;34232;42.502;26.014;2023-07-16T23:18:22;100289.88;;;24.99;49.13
48424;BME280;34232;42.502;26.014;2023-07-16T23:20:48;100294.41;;;24.98;49.05
48424;BME280;34232;42.502;26.014;2023-07-16T23:23:13;100290.69;;;24.99;49.58
48424;BME280;34232;42.502;26.014;2023-07-16T23:25:40;100291.72;;;24.98;49.28
48424;BME280;34232;42.502;26.014;2023-07-16T23:28:05;100291.94;;;24.97;49.77
48424;BME280;34232;42.502;26.014;2023-07-16T23:30:32;100297.34;;;24.97;49.88
48424;BME280;34232;42.502;26.014;2023-07-16T23:48:12;100292.88;;;24.58;51.73
48424;BME280;34232;42.502;26.014;2023-07-16T23:50:37;100283.19;;;24.50;51.77
48424;BME280;34232;42.502;26.014;2023-07-16T23:59:28;100278.00;;;24.49;51.70
